Time;durP1;ratioP1;P1;durP2;ratioP2;P2;SDS_P1;SDS_P2;PMS_P1;PMS_P2;Temp;Humidity;BMP_temperature;BMP_pressure;BME280_temperature;BME280_humidity;BME280_pressure;Samples;Min_cycle;Max_cycle;Signal;HPM_P1;HPM_P2
2021/12/03 00:01:13;;;;;;;12.37;5.90;;;;;;;-145.18;100.00;60484.78;5054872;28;20073;-70
2021/12/03 00:03:38;;;;;;;14.73;5.87;;;;;;;-145.18;100.00;60484.78;5060474;28;20519;-70
2021/12/03 00:06:04;;;;;;;11.63;6.17;;;;;;;-145.18;100.00;60484.78;5061486;28;20365;-70
2021/12/03 00:08:30;;;;;;;12.93;6.30;;;;;;;-145.18;100.00;60484.78;5060863;28;20554;-70
2021/12/03 00:10:59;;;;;;;15.27;6.17;;;;;;;-145.18;100.00;60484.78;5053991;28;20024;-70
2021/12/03 00:13:26;;;;;;;12.37;6.70;;;;;;;-145.18;100.00;60484.78;5059599;28;20546;-70
2021/12/03 00:15:53;;;;;;;13.37;6.60;;;;;;;-145.18;100.00;60484.78;5052582;28;20266;-70
2021/12/03 00:18:19;;;;;;;11.20;5.20;;;;;;;-145.18;100.00;60484.78;5061451;28;20262;-70
2021/12/03 00:20:46;;;;;;;11.33;5.50;;;;;;;-145.18;100.00;60484.78;5060697;28;20290;-70
2021/12/03 00:23:11;;;;;;;13.37;6.03;;;;;;;-145.18;100.00;60484.78;5059914;28;20515;-70
2021/12/03 00:25:37;;;;;;;10.17;5.37;;;;;;;-145.18;100.00;60484.78;5061670;28;20278;-70
2021/12/03 00:28:03;;;;;;;13.57;5.93;;;;;;;-145.18;100.00;60484.78;5061451;28;20036;-70
2021/12/03 00:30:29;;;;;;;14.87;6.07;;;;;;;-145.18;100.00;60484.78;5053104;28;20155;-70
2021/12/03 00:32:54;;;;;;;11.07;6.03;;;;;;;-145.18;100.00;60484.78;5060661;28;20877;-70
2021/12/03 00:35:20;;;;;;;12.07;6.23;;;;;;;-145.18;100.00;60484.78;5060993;28;20044;-70
2021/12/03 00:37:48;;;;;;;10.27;5.43;;;;;;;-145.18;100.00;60484.78;5072218;28;20028;-70
2021/12/03 00:40:18;;;;;;;13.67;6.07;;;;;;;-145.18;100.00;60484.78;5060560;28;20540;-70
2021/12/03 00:42:44;;;;;;;19.03;6.90;;;;;;;-145.18;100.00;60484.78;5060353;28;20775;-70
2021/12/03 00:45:12;;;;;;;9.37;5.13;;;;;;;-145.18;100.00;60484.78;5059455;28;20343;-70
2021/12/03 00:47:39;;;;;;;12.77;6.93;;;;;;;-145.18;100.00;60484.78;5060178;28;20114;-70
2021/12/03 00:50:06;;;;;;;13.20;5.90;;;;;;;-145.18;100.00;60484.78;5058924;28;20283;-70
2021/12/03 00:52:32;;;;;;;9.93;5.37;;;;;;;-145.18;100.00;60484.78;5057178;28;20507;-70
2021/12/03 00:54:58;;;;;;;9.50;5.40;;;;;;;-145.18;100.00;60484.78;5060475;28;20598;-70
2021/12/03 00:57:23;;;;;;;14.03;4.13;;;;;;;-145.18;100.00;60484.78;5059111;28;20359;-70
2021/12/03 00:59:49;;;;;;;12.53;5.37;;;;;;;-145.18;100.00;60484.78;5056092;28;20385;-70
2021/12/03 01:02:14;;;;;;;10.57;5.77;;;;;;;-145.18;100.00;60484.78;5058293;28;20020;-70
2021/12/03 01:04:40;;;;;;;12.83;5.90;;;;;;;-145.18;100.00;60484.78;5058718;28;20056;-70
2021/12/03 01:07:05;;;;;;;10.87;5.57;;;;;;;-145.18;100.00;60484.78;5059461;28;20078;-70
2021/12/03 01:09:31;;;;;;;12.17;5.30;;;;;;;-145.18;100.00;60484.78;5049761;28;20028;-70
2021/12/03 01:11:58;;;;;;;12.43;5.67;;;;;;;-145.18;100.00;60484.78;5059320;28;20029;-68
2021/12/03 01:14:23;;;;;;;9.13;5.00;;;;;;;-145.18;100.00;60484.78;5051462;28;20021;-68
2021/12/03 01:16:49;;;;;;;11.27;5.97;;;;;;;-145.18;100.00;60484.78;5058901;28;20766;-68
2021/12/03 01:19:15;;;;;;;18.47;6.87;;;;;;;-145.18;100.00;60484.78;5059605;28;20557;-68
2021/12/03 01:21:40;;;;;;;11.07;6.27;;;;;;;-145.18;100.00;60484.78;5050764;28;20521;-68
2021/12/03 01:24:07;;;;;;;11.93;6.60;;;;;;;-145.18;100.00;60484.78;5059816;28;20453;-68
2021/12/03 01:26:34;;;;;;;12.43;5.57;;;;;;;-145.18;100.00;60484.78;5059365;28;20063;-68
2021/12/03 01:29:00;;;;;;;11.33;6.03;;;;;;;-145.18;100.00;60484.78;5054262;28;20267;-68
2021/12/03 01:31:26;;;;;;;12.80;6.17;;;;;;;-145.18;100.00;60484.78;5059928;28;20539;-68
2021/12/03 01:33:51;;;;;;;10.20;5.90;;;;;;;-145.18;100.00;60484.78;5059764;28;20028;-68
2021/12/03 01:36:17;;;;;;;12.40;5.90;;;;;;;-145.18;100.00;60484.78;5055285;28;20204;-68
2021/12/03 01:38:43;;;;;;;10.67;6.10;;;;;;;-145.18;100.00;60484.78;5059245;28;20310;-68
2021/12/03 01:41:09;;;;;;;14.20;6.30;;;;;;;-145.18;100.00;60484.78;5058155;28;20028;-68
2021/12/03 01:43:35;;;;;;;10.93;5.90;;;;;;;-145.18;100.00;60484.78;5052586;28;20744;-68
2021/12/03 01:46:05;;;;;;;12.67;5.57;;;;;;;-145.18;100.00;60484.78;5046318;28;20028;-68
2021/12/03 01:48:30;;;;;;;11.70;5.67;;;;;;;-145.18;100.00;60484.78;5056810;28;20500;-69
2021/12/03 01:50:56;;;;;;;19.37;6.77;;;;;;;-145.18;100.00;60484.78;5057022;28;20296;-69
2021/12/03 01:53:25;;;;;;;11.03;6.53;;;;;;;-145.18;100.00;60484.78;5059779;28;20032;-68
2021/12/03 01:55:55;;;;;;;11.43;6.83;;;;;;;-145.18;100.00;60484.78;5052707;28;20032;-69
2021/12/03 01:58:20;;;;;;;12.87;7.03;;;;;;;-145.18;100.00;60484.78;5052832;28;20279;-68
2021/12/03 02:00:47;;;;;;;12.60;7.07;;;;;;;-145.18;100.00;60484.78;5056265;28;20394;-69
2021/12/03 02:03:14;;;;;;;11.93;6.83;;;;;;;-145.18;100.00;60484.78;5055351;28;20553;-69
2021/12/03 02:05:42;;;;;;;15.10;7.33;;;;;;;-145.18;100.00;60484.78;5051070;28;20294;-69
2021/12/03 02:08:08;;;;;;;10.90;6.13;;;;;;;-145.18;100.00;60484.78;5062785;28;20769;-69
2021/12/03 02:10:34;;;;;;;12.30;6.37;;;;;;;-145.18;100.00;60484.78;5059377;28;20433;-69
2021/12/03 02:13:00;;;;;;;13.87;7.00;;;;;;;-145.18;100.00;60484.78;5063024;28;20062;-69
2021/12/03 02:15:26;;;;;;;13.60;6.80;;;;;;;-145.18;100.00;60484.78;5059280;28;20271;-69
2021/12/03 02:17:52;;;;;;;11.70;6.60;;;;;;;-145.18;100.00;60484.78;5059392;28;20495;-69
2021/12/03 02:20:18;;;;;;;12.57;6.83;;;;;;;-145.18;100.00;60484.78;5058392;28;20278;-69
2021/12/03 02:22:45;;;;;;;10.63;6.07;;;;;;;-145.18;100.00;60484.78;5058971;28;20291;-69
2021/12/03 02:25:15;;;;;;;14.27;7.27;;;;;;;-145.18;100.00;60484.78;5059291;28;20876;-69
2021/12/03 02:27:41;;;;;;;12.73;6.90;;;;;;;-145.18;100.00;60484.78;5067252;28;20377;-69
2021/12/03 02:30:08;;;;;;;14.47;7.47;;;;;;;-145.18;100.00;60484.78;5065840;28;20830;-69
2021/12/03 02:32:34;;;;;;;10.80;6.63;;;;;;;-145.18;100.00;60484.78;5066349;28;20044;-69
2021/12/03 02:34:59;;;;;;;12.17;7.67;;;;;;;-145.18;100.00;60484.78;5065734;28;20291;-69
2021/12/03 02:37:25;;;;;;;14.57;7.63;;;;;;;-145.18;100.00;60484.78;5064360;28;20032;-69
2021/12/03 02:39:50;;;;;;;15.50;7.53;;;;;;;-145.18;100.00;60484.78;5065733;28;20048;-69
2021/12/03 02:42:16;;;;;;;14.37;7.73;;;;;;;-145.18;100.00;60484.78;5065216;28;20107;-69
2021/12/03 02:44:42;;;;;;;14.07;7.57;;;;;;;-145.18;100.00;60484.78;5052188;28;20042;-69
2021/12/03 02:47:07;;;;;;;13.27;7.57;;;;;;;-145.18;100.00;60484.78;5075410;28;20762;-69
2021/12/03 02:49:41;;;;;;;11.63;6.17;;;;;;;-145.18;100.00;60484.78;5061495;28;20055;-69
2021/12/03 02:52:08;;;;;;;13.40;6.53;;;;;;;-145.18;100.00;60484.78;5071337;28;20023;-69
2021/12/03 02:54:35;;;;;;;14.50;7.23;;;;;;;-145.18;100.00;60484.78;5065252;28;20278;-69
2021/12/03 02:57:01;;;;;;;12.37;7.10;;;;;;;-145.18;100.00;60484.78;5065207;28;20643;-69
2021/12/03 02:59:27;;;;;;;14.77;7.43;;;;;;;-145.18;100.00;60484.78;5064654;28;20824;-69
2021/12/03 03:01:52;;;;;;;14.47;7.70;;;;;;;-145.18;100.00;60484.78;5075912;28;20301;-69
2021/12/03 03:04:18;;;;;;;15.40;7.80;;;;;;;-145.18;100.00;60484.78;5065665;28;20332;-69
2021/12/03 03:06:43;;;;;;;8.60;5.13;;;;;;;-145.18;100.00;60484.78;5065743;28;20437;-69
2021/12/03 03:09:11;;;;;;;12.57;7.17;;;;;;;-145.18;100.00;60484.78;5065536;28;20032;-69
2021/12/03 03:11:37;;;;;;;39.83;8.20;;;;;;;-145.18;100.00;60484.78;5065291;28;20500;-69
2021/12/03 03:14:04;;;;;;;13.93;7.33;;;;;;;-145.18;100.00;60484.78;5065304;28;20270;-69
2021/12/03 03:16:30;;;;;;;13.83;7.00;;;;;;;-145.18;100.00;60484.78;5063826;28;20297;-69
2021/12/03 03:18:55;;;;;;;14.17;7.53;;;;;;;-145.18;100.00;60484.78;5064441;28;20275;-69
2021/12/03 03:21:21;;;;;;;14.00;7.60;;;;;;;-145.18;100.00;60484.78;5063810;28;20291;-69
2021/12/03 03:23:47;;;;;;;10.90;6.47;;;;;;;-145.18;100.00;60484.78;5065709;28;20032;-69
2021/12/03 03:26:12;;;;;;;14.13;6.73;;;;;;;-145.18;100.00;60484.78;5064936;28;20298;-69
2021/12/03 03:28:40;;;;;;;14.03;7.27;;;;;;;-145.18;100.00;60484.78;5058103;28;20492;-69
2021/12/03 03:31:06;;;;;;;13.70;6.83;;;;;;;-145.18;100.00;60484.78;5061229;28;20336;-68
2021/12/03 03:33:33;;;;;;;12.37;6.67;;;;;;;-145.18;100.00;60484.78;5065112;28;20285;-68
2021/12/03 03:35:58;;;;;;;12.73;7.60;;;;;;;-145.18;100.00;60484.78;5055645;28;20474;-69
2021/12/03 03:38:24;;;;;;;10.87;6.13;;;;;;;-145.18;100.00;60484.78;5061055;28;20271;-68
2021/12/03 03:40:49;;;;;;;14.67;7.57;;;;;;;-145.18;100.00;60484.78;5065609;28;20028;-69
2021/12/03 03:43:17;;;;;;;13.23;7.47;;;;;;;-145.18;100.00;60484.78;5063721;28;20279;-69
2021/12/03 03:45:44;;;;;;;16.53;8.10;;;;;;;-145.18;100.00;60484.78;5058959;28;20173;-69
2021/12/03 03:48:09;;;;;;;14.67;7.87;;;;;;;-145.18;100.00;60484.78;5061642;28;20274;-69
2021/12/03 03:50:35;;;;;;;16.33;7.40;;;;;;;-145.18;100.00;60484.78;5059637;28;20277;-69
2021/12/03 03:53:01;;;;;;;14.83;7.23;;;;;;;-145.18;100.00;60484.78;5059242;28;20024;-69
2021/12/03 03:55:26;;;;;;;14.80;7.83;;;;;;;-145.18;100.00;60484.78;5052534;28;20416;-69
2021/12/03 03:57:55;;;;;;;13.07;6.50;;;;;;;-145.18;100.00;60484.78;5060240;28;20068;-69
2021/12/03 04:00:27;;;;;;;11.30;5.97;;;;;;;-145.18;100.00;60484.78;5061468;28;20319;-69
2021/12/03 04:02:52;;;;;;;12.77;7.10;;;;;;;-145.18;100.00;60484.78;5061187;28;20325;-69
2021/12/03 04:05:17;;;;;;;13.70;8.20;;;;;;;-145.18;100.00;60484.78;5061407;28;20314;-69
2021/12/03 04:07:43;;;;;;;18.33;8.50;;;;;;;-145.18;100.00;60484.78;5061295;28;20066;-69
2021/12/03 04:10:09;;;;;;;18.20;8.80;;;;;;;-145.18;100.00;60484.78;5060622;28;20149;-69
2021/12/03 04:12:37;;;;;;;14.63;6.93;;;;;;;-145.18;100.00;60484.78;5061019;28;20024;-69
2021/12/03 04:15:04;;;;;;;15.77;8.53;;;;;;;-145.18;100.00;60484.78;5061120;28;20290;-69
2021/12/03 04:17:30;;;;;;;17.43;9.07;;;;;;;-145.18;100.00;60484.78;5061090;28;20822;-69
2021/12/03 04:19:55;;;;;;;18.77;9.40;;;;;;;-145.18;100.00;60484.78;5061147;28;20349;-69
2021/12/03 04:22:23;;;;;;;18.00;8.87;;;;;;;-145.18;100.00;60484.78;5061118;28;20116;-69
2021/12/03 04:24:50;;;;;;;15.03;8.83;;;;;;;-145.18;100.00;60484.78;5061008;28;20028;-69
2021/12/03 04:27:16;;;;;;;18.63;9.67;;;;;;;-145.18;100.00;60484.78;5060557;28;20278;-69
2021/12/03 04:29:42;;;;;;;11.87;7.13;;;;;;;-145.18;100.00;60484.78;5059206;28;20279;-69
2021/12/03 04:32:08;;;;;;;20.03;9.93;;;;;;;-145.18;100.00;60484.78;5060942;28;20029;-69
2021/12/03 04:34:34;;;;;;;17.40;10.10;;;;;;;-145.18;100.00;60484.78;5060664;28;20572;-69
2021/12/03 04:36:59;;;;;;;20.27;10.10;;;;;;;-145.18;100.00;60484.78;5061934;28;20290;-69
2021/12/03 04:39:25;;;;;;;19.20;8.63;;;;;;;-145.18;100.00;60484.78;5060016;28;20303;-69
2021/12/03 04:41:50;;;;;;;19.20;9.63;;;;;;;-145.18;100.00;60484.78;5059512;28;20412;-70
2021/12/03 04:44:16;;;;;;;20.83;10.57;;;;;;;-145.18;100.00;60484.78;5060740;28;20051;-69
2021/12/03 04:46:41;;;;;;;14.37;8.07;;;;;;;-145.18;100.00;60484.78;5060433;28;20217;-69
2021/12/03 04:49:07;;;;;;;19.23;11.10;;;;;;;-145.18;100.00;60484.78;5058696;28;20239;-69
2021/12/03 04:51:32;;;;;;;20.13;10.87;;;;;;;-145.18;100.00;60484.78;5057271;28;20579;-69
2021/12/03 04:53:57;;;;;;;21.33;11.43;;;;;;;-145.18;100.00;60484.78;5060626;28;20032;-69
2021/12/03 04:56:23;;;;;;;20.40;11.20;;;;;;;-145.18;100.00;60484.78;5059468;28;20105;-69
2021/12/03 04:58:49;;;;;;;25.30;12.00;;;;;;;-145.18;100.00;60484.78;5060071;28;20072;-69
2021/12/03 05:01:14;;;;;;;23.00;12.87;;;;;;;-145.18;100.00;60484.78;5059514;28;20255;-69
2021/12/03 05:03:39;;;;;;;25.83;13.13;;;;;;;-145.18;100.00;60484.78;5060118;28;20171;-69
2021/12/03 05:06:09;;;;;;;21.57;10.07;;;;;;;-145.18;100.00;60484.78;5062047;28;20510;-69
2021/12/03 05:08:34;;;;;;;26.87;12.00;;;;;;;-145.18;100.00;60484.78;5060161;28;20165;-69
2021/12/03 05:11:00;;;;;;;28.07;12.63;;;;;;;-145.18;100.00;60484.78;5059647;28;20377;-69
2021/12/03 05:13:31;;;;;;;25.87;12.13;;;;;;;-145.18;100.00;60484.78;5059381;28;20058;-69
2021/12/03 05:15:57;;;;;;;31.07;14.20;;;;;;;-145.18;100.00;60484.78;5060460;28;20045;-69
2021/12/03 05:18:26;;;;;;;31.00;14.40;;;;;;;-145.18;100.00;60484.78;5059991;28;20727;-69
2021/12/03 05:20:53;;;;;;;24.70;12.97;;;;;;;-145.18;100.00;60484.78;5051475;28;20281;-69
2021/12/03 05:23:20;;;;;;;29.33;13.40;;;;;;;-145.18;100.00;60484.78;5059929;28;20704;-69
2021/12/03 05:25:47;;;;;;;27.73;14.00;;;;;;;-145.18;100.00;60484.78;5059508;28;20794;-69
2021/12/03 05:28:14;;;;;;;26.70;12.87;;;;;;;-145.18;100.00;60484.78;5059631;28;20290;-69
2021/12/03 05:30:39;;;;;;;32.07;15.53;;;;;;;-145.18;100.00;60484.78;5059332;28;20275;-69
2021/12/03 05:33:05;;;;;;;32.33;14.80;;;;;;;-145.18;100.00;60484.78;5049951;28;20801;-69
2021/12/03 05:35:31;;;;;;;34.60;15.57;;;;;;;-145.18;100.00;60484.78;5058723;28;20028;-69
2021/12/03 05:37:57;;;;;;;22.57;11.73;;;;;;;-145.18;100.00;60484.78;5061008;28;20274;-69
2021/12/03 05:40:23;;;;;;;24.90;13.33;;;;;;;-145.18;100.00;60484.78;5063025;28;20326;-69
2021/12/03 05:42:50;;;;;;;27.50;14.23;;;;;;;-145.18;100.00;60484.78;5063448;28;20290;-69
2021/12/03 05:45:21;;;;;;;27.33;14.47;;;;;;;-145.18;100.00;60484.78;5060215;28;20436;-69
2021/12/03 05:47:47;;;;;;;31.00;15.17;;;;;;;-145.18;100.00;60484.78;5059171;28;20557;-69
2021/12/03 05:50:14;;;;;;;37.07;14.90;;;;;;;-145.18;100.00;60484.78;5058664;28;20293;-69
2021/12/03 05:52:40;;;;;;;26.63;12.73;;;;;;;-145.18;100.00;60484.78;5056595;28;20282;-69
2021/12/03 05:55:07;;;;;;;28.67;14.47;;;;;;;-145.18;100.00;60484.78;5058628;28;20289;-69
2021/12/03 05:57:33;;;;;;;35.00;15.80;;;;;;;-145.18;100.00;60484.78;5060821;28;20271;-69
2021/12/03 05:59:59;;;;;;;34.27;16.00;;;;;;;-145.18;100.00;60484.78;5051925;28;20290;-69
2021/12/03 06:02:25;;;;;;;25.77;13.57;;;;;;;-145.18;100.00;60484.78;5053770;28;20591;-69
2021/12/03 06:04:50;;;;;;;32.27;16.03;;;;;;;-145.18;100.00;60484.78;5051737;28;20415;-69
2021/12/03 06:07:16;;;;;;;40.17;16.40;;;;;;;-145.18;100.00;60484.78;5058243;28;20028;-69
2021/12/03 06:09:42;;;;;;;33.07;15.67;;;;;;;-145.18;100.00;60484.78;5058001;28;20028;-69
2021/12/03 06:12:08;;;;;;;33.60;15.20;;;;;;;-145.18;100.00;60484.78;5057176;28;20028;-69
2021/12/03 06:14:34;;;;;;;36.07;17.30;;;;;;;-145.18;100.00;60484.78;5057486;28;20270;-69
2021/12/03 06:16:59;;;;;;;34.90;14.63;;;;;;;-145.18;100.00;60484.78;5057897;28;20708;-69
2021/12/03 06:19:25;;;;;;;34.93;14.87;;;;;;;-145.18;100.00;60484.78;5059320;28;20024;-69
2021/12/03 06:21:51;;;;;;;38.87;16.13;;;;;;;-145.18;100.00;60484.78;5057270;28;20089;-69
2021/12/03 06:24:16;;;;;;;37.00;15.67;;;;;;;-145.18;100.00;60484.78;5058524;28;20086;-69
2021/12/03 06:26:42;;;;;;;29.43;13.93;;;;;;;-145.18;100.00;60484.78;5053678;28;20459;-69
2021/12/03 06:29:07;;;;;;;42.97;17.13;;;;;;;-145.18;100.00;60484.78;5058973;28;20040;-69
2021/12/03 06:31:33;;;;;;;39.37;16.57;;;;;;;-145.18;100.00;60484.78;5057783;28;20020;-69
2021/12/03 06:33:59;;;;;;;41.50;16.43;;;;;;;-145.18;100.00;60484.78;5057749;28;20122;-69
2021/12/03 06:36:25;;;;;;;29.80;14.00;;;;;;;-145.18;100.00;60484.78;5058400;28;20302;-69
2021/12/03 06:38:50;;;;;;;41.17;18.33;;;;;;;-145.18;100.00;60484.78;5058726;28;20527;-69
2021/12/03 06:41:16;;;;;;;39.13;16.57;;;;;;;-145.18;100.00;60484.78;5057726;28;20248;-69
2021/12/03 06:43:41;;;;;;;34.90;15.07;;;;;;;-145.18;100.00;60484.78;5059068;28;20028;-69
2021/12/03 06:46:06;;;;;;;39.20;15.97;;;;;;;-145.18;100.00;60484.78;5061157;28;20058;-69
2021/12/03 06:48:32;;;;;;;37.47;14.77;;;;;;;-145.18;100.00;60484.78;5059060;28;20070;-69
2021/12/03 06:50:58;;;;;;;39.50;17.83;;;;;;;-145.18;100.00;60484.78;5058463;28;20028;-69
2021/12/03 06:53:27;;;;;;;38.77;15.97;;;;;;;-145.18;100.00;60484.78;5058170;28;20370;-69
2021/12/03 06:56:05;;;;;;;39.87;14.97;;;;;;;-145.18;100.00;60484.78;5057879;28;20508;-69
2021/12/03 06:58:30;;;;;;;44.57;17.93;;;;;;;-145.18;100.00;60484.78;5049555;28;20279;-69
2021/12/03 07:00:56;;;;;;;38.80;17.50;;;;;;;-145.18;100.00;60484.78;5049029;28;20429;-69
2021/12/03 07:03:22;;;;;;;44.23;18.93;;;;;;;-145.18;100.00;60484.78;5050960;28;20028;-69
2021/12/03 07:05:48;;;;;;;45.93;16.20;;;;;;;-145.18;100.00;60484.78;5056499;28;20291;-69
2021/12/03 07:08:14;;;;;;;40.30;15.30;;;;;;;-145.18;100.00;60484.78;5058433;28;20490;-69
2021/12/03 07:10:40;;;;;;;44.30;17.37;;;;;;;-145.18;100.00;60484.78;5058812;28;20032;-69
2021/12/03 07:13:06;;;;;;;38.30;15.90;;;;;;;-145.18;100.00;60484.78;5054606;28;20271;-69
2021/12/03 07:15:33;;;;;;;36.03;13.80;;;;;;;-145.18;100.00;60484.78;5062025;28;20100;-69
2021/12/03 07:17:58;;;;;;;46.87;17.30;;;;;;;-145.18;100.00;60484.78;5070516;28;20824;-69
2021/12/03 07:20:26;;;;;;;36.67;14.80;;;;;;;-145.18;100.00;60484.78;5062108;28;20357;-70
2021/12/03 07:22:52;;;;;;;41.40;16.10;;;;;;;-145.18;100.00;60484.78;5060231;28;20051;-69
2021/12/03 07:25:18;;;;;;;43.83;15.40;;;;;;;-145.18;100.00;60484.78;5061933;28;20677;-70
2021/12/03 07:27:44;;;;;;;36.77;15.43;;;;;;;-145.18;100.00;60484.78;5059313;28;20282;-70
2021/12/03 07:30:11;;;;;;;38.83;17.23;;;;;;;-145.18;100.00;60484.78;5061623;28;20611;-70
2021/12/03 07:32:37;;;;;;;29.40;12.77;;;;;;;-145.18;100.00;60484.78;5063268;28;20101;-69
2021/12/03 07:35:05;;;;;;;46.13;15.40;;;;;;;-145.18;100.00;60484.78;5061069;28;20751;-70
2021/12/03 07:37:31;;;;;;;40.70;16.27;;;;;;;-145.18;100.00;60484.78;5058989;28;20541;-69
2021/12/03 07:40:05;;;;;;;37.30;14.20;;;;;;;-145.18;100.00;60484.78;5060517;28;20714;-70
2021/12/03 07:42:31;;;;;;;40.70;15.87;;;;;;;-145.18;100.00;60484.78;5056680;28;20055;-70
2021/12/03 07:44:57;;;;;;;38.47;16.03;;;;;;;-145.18;100.00;60484.78;5060310;28;20270;-69
2021/12/03 07:47:23;;;;;;;37.87;13.77;;;;;;;-145.18;100.00;60484.78;5060711;28;20770;-70
2021/12/03 07:49:50;;;;;;;33.57;13.70;;;;;;;-145.18;100.00;60484.78;5060820;28;20536;-70
2021/12/03 07:52:18;;;;;;;37.60;14.03;;;;;;;-145.18;100.00;60484.78;5064998;28;20251;-70
2021/12/03 07:54:44;;;;;;;27.00;11.13;;;;;;;-145.18;100.00;60484.78;5061297;28;20294;-70
2021/12/03 07:57:09;;;;;;;32.77;13.00;;;;;;;-145.18;100.00;60484.78;5061214;28;20642;-70
2021/12/03 07:59:35;;;;;;;35.83;14.07;;;;;;;-145.18;100.00;60484.78;5057843;28;20459;-70
2021/12/03 08:02:00;;;;;;;29.83;13.77;;;;;;;-145.18;100.00;60484.78;5058749;28;20584;-70
2021/12/03 08:04:26;;;;;;;32.10;12.97;;;;;;;-145.18;100.00;60484.78;5058075;28;20052;-70
2021/12/03 08:06:53;;;;;;;32.80;13.67;;;;;;;-145.18;100.00;60484.78;5060969;28;20060;-70
2021/12/03 08:09:20;;;;;;;31.00;12.13;;;;;;;-145.18;100.00;60484.78;5060983;28;20536;-70
2021/12/03 08:11:46;;;;;;;31.23;13.00;;;;;;;-145.18;100.00;60484.78;5058443;28;20841;-70
2021/12/03 08:14:12;;;;;;;42.90;15.50;;;;;;;-145.18;100.00;60484.78;5059600;28;20539;-70
2021/12/03 08:16:38;;;;;;;38.13;15.20;;;;;;;-145.18;100.00;60484.78;5059477;28;20044;-70
2021/12/03 08:19:05;;;;;;;35.60;14.30;;;;;;;-145.18;100.00;60484.78;5057224;28;20101;-71
2021/12/03 08:21:30;;;;;;;38.00;14.73;;;;;;;-145.18;100.00;60484.78;5060575;28;20734;-70
2021/12/03 08:23:56;;;;;;;40.13;13.87;;;;;;;-145.18;100.00;60484.78;5061084;28;20390;-70
2021/12/03 08:26:21;;;;;;;35.03;13.40;;;;;;;-145.18;100.00;60484.78;5060669;28;20064;-70
2021/12/03 08:28:47;;;;;;;38.17;13.23;;;;;;;-145.18;100.00;60484.78;5059666;28;20311;-69
2021/12/03 08:31:14;;;;;;;40.70;14.03;;;;;;;-145.18;100.00;60484.78;5058133;28;20474;-69
2021/12/03 08:33:41;;;;;;;40.17;13.23;;;;;;;-145.18;100.00;60484.78;5060475;28;20421;-69
2021/12/03 08:36:07;;;;;;;42.90;13.23;;;;;;;-145.18;100.00;60484.78;5060747;28;20275;-70
2021/12/03 08:38:32;;;;;;;38.53;15.00;;;;;;;-145.18;100.00;60484.78;5060821;28;20933;-69
2021/12/03 08:40:58;;;;;;;44.57;14.77;;;;;;;-145.18;100.00;60484.78;5058986;28;20032;-69
2021/12/03 08:43:24;;;;;;;46.73;14.57;;;;;;;-145.18;100.00;60484.78;5060076;28;20189;-69
2021/12/03 08:45:53;;;;;;;40.63;12.57;;;;;;;-145.18;100.00;60484.78;5060134;28;20040;-69
2021/12/03 08:48:19;;;;;;;43.20;14.50;;;;;;;-145.18;100.00;60484.78;5058901;28;20044;-69
2021/12/03 08:51:09;;;;;;;40.47;13.63;;;;;;;-145.18;100.00;60484.78;5060048;28;20654;-69
2021/12/03 08:56:19;;;;;;;34.93;11.13;;;;;;;-145.18;100.00;60484.78;5059752;28;20635;-69
2021/12/03 08:58:44;;;;;;;45.13;14.60;;;;;;;-145.18;100.00;60484.78;5059011;28;20271;-69
2021/12/03 09:01:12;;;;;;;37.33;12.57;;;;;;;-145.18;100.00;60484.78;5058970;28;20496;-69
2021/12/03 09:03:38;;;;;;;41.33;13.77;;;;;;;-145.18;100.00;60484.78;5055697;28;20090;-69
2021/12/03 09:06:03;;;;;;;37.23;13.07;;;;;;;-145.18;100.00;60484.78;5059245;28;20774;-69
2021/12/03 09:08:28;;;;;;;39.67;11.73;;;;;;;-145.18;100.00;60484.78;5059193;28;20024;-69
2021/12/03 09:10:54;;;;;;;38.33;14.07;;;;;;;-145.18;100.00;60484.78;5060015;28;20420;-69
2021/12/03 09:13:20;;;;;;;46.53;13.87;;;;;;;-145.18;100.00;60484.78;5059837;28;20044;-69
2021/12/03 09:16:07;;;;;;;41.53;13.90;;;;;;;-145.18;100.00;60484.78;5060046;28;20024;-69
2021/12/03 09:18:36;;;;;;;37.07;13.07;;;;;;;-145.18;100.00;60484.78;5056890;28;20508;-69
2021/12/03 09:26:18;;;;;;;37.47;13.57;;;;;;;-145.18;100.00;60484.78;5056526;28;20444;-69
2021/12/03 09:28:46;;;;;;;38.23;12.90;;;;;;;-145.18;100.00;60484.78;5055533;28;20467;-69
2021/12/03 09:31:12;;;;;;;38.10;13.67;;;;;;;-145.18;100.00;60484.78;5060246;28;20678;-69
2021/12/03 09:33:41;;;;;;;35.47;11.63;;;;;;;-145.18;100.00;60484.78;5059801;28;20790;-69
2021/12/03 09:36:09;;;;;;;30.00;11.00;;;;;;;-145.18;100.00;60484.78;5057996;28;20739;-69
2021/12/03 09:38:35;;;;;;;44.67;12.50;;;;;;;-145.18;100.00;60484.78;5059647;28;20754;-69
2021/12/03 09:41:06;;;;;;;33.93;12.77;;;;;;;-145.18;100.00;60484.78;5059677;28;20758;-69
2021/12/03 09:43:34;;;;;;;27.07;10.90;;;;;;;-145.18;100.00;60484.78;5059691;28;20656;-69
2021/12/03 09:46:08;;;;;;;36.03;10.53;;;;;;;-145.18;100.00;60484.78;5062917;28;20288;-69
2021/12/03 09:51:08;;;;;;;41.73;12.50;;;;;;;-145.18;100.00;60484.78;5059733;28;20445;-69
2021/12/03 09:56:02;;;;;;;36.80;11.40;;;;;;;-145.18;100.00;60484.78;5059721;28;20052;-69
2021/12/03 10:01:36;;;;;;;43.33;11.10;;;;;;;-145.18;100.00;60484.78;5011718;28;20073;-69
2021/12/03 10:10:19;;;;;;;25.20;9.63;;;;;;;-145.18;100.00;60484.78;5002599;28;20283;-68
2021/12/03 10:15:17;;;;;;;23.47;9.27;;;;;;;-145.18;100.00;60484.78;5016147;28;20329;-68
2021/12/03 10:20:32;;;;;;;31.33;11.47;;;;;;;-145.18;100.00;60484.78;5015332;28;20021;-69
2021/12/03 10:37:02;;;;;;;33.97;9.10;;;;;;;-145.18;100.00;60484.78;5003641;28;20404;-70
2021/12/03 12:21:16;;;;;;;15.10;5.43;;;;;;;-145.18;100.00;60484.78;4969003;28;20278;-69
2021/12/03 12:44:02;;;;;;;10.37;4.40;;;;;;;-145.18;100.00;60484.78;4974211;28;20809;-69
2021/12/03 13:06:56;;;;;;;20.33;5.63;;;;;;;-145.18;100.00;60484.78;5059541;28;20360;-69
2021/12/03 13:14:42;;;;;;;10.77;4.13;;;;;;;-145.18;100.00;60484.78;4968940;28;20584;-70
2021/12/03 13:34:32;;;;;;;6.40;3.00;;;;;;;-145.18;100.00;60484.78;4969783;28;20281;-70
2021/12/03 13:38:02;;;;;;;11.37;4.30;;;;;;;-145.18;100.00;60484.78;4973123;28;20395;-70
2021/12/03 13:40:20;;;;;;;7.53;3.33;;;;;;;-145.18;100.00;60484.78;4972553;28;20270;-70
2021/12/03 14:10:30;;;;;;;12.47;5.13;;;;;;;-145.18;100.00;60484.78;4987527;28;20283;-70
2021/12/03 14:23:00;;;;;;;8.50;3.50;;;;;;;-145.18;100.00;60484.78;5057573;28;20336;-69
2021/12/03 14:40:37;;;;;;;8.60;3.90;;;;;;;-145.18;100.00;60484.78;5056499;28;20604;-70
2021/12/03 14:48:32;;;;;;;10.87;4.03;;;;;;;-145.18;100.00;60484.78;5052360;28;21001;-69
2021/12/03 14:57:22;;;;;;;11.77;3.10;;;;;;;-145.18;100.00;60484.78;5015798;28;20653;-70
2021/12/03 15:03:39;;;;;;;11.63;4.73;;;;;;;-145.18;100.00;60484.78;4880723;29;20290;-70
2021/12/03 15:08:59;;;;;;;12.77;4.03;;;;;;;-145.18;100.00;60484.78;4878316;29;20285;-69
2021/12/03 15:33:08;;;;;;;9.47;3.90;;;;;;;-145.18;100.00;60484.78;4861555;29;20552;-69
2021/12/03 15:57:18;;;;;;;15.00;3.90;;;;;;;-145.18;100.00;60484.78;4997012;28;20371;-69
2021/12/03 16:08:10;;;;;;;12.83;4.57;;;;;;;-145.18;100.00;60484.78;5061790;28;20308;-69
2021/12/03 16:21:37;;;;;;;9.53;4.20;;;;;;;-145.18;100.00;60484.78;5065221;28;20266;-69
2021/12/03 16:49:18;;;;;;;11.33;5.27;;;;;;;-145.18;100.00;60484.78;4959143;28;20268;-69
2021/12/03 16:53:49;;;;;;;7.97;4.60;;;;;;;-145.18;100.00;60484.78;4945158;28;20994;-68
2021/12/03 16:56:26;;;;;;;6.80;3.50;;;;;;;-145.18;100.00;60484.78;4956147;28;20337;-69
2021/12/03 16:58:52;;;;;;;10.33;5.37;;;;;;;-145.18;100.00;60484.78;4959109;28;20559;-69
2021/12/03 17:03:54;;;;;;;13.60;6.00;;;;;;;-145.18;100.00;60484.78;4957885;28;20325;-69
2021/12/03 17:15:47;;;;;;;8.23;4.87;;;;;;;-145.18;100.00;60484.78;4978317;28;21088;-69
2021/12/03 17:30:54;;;;;;;9.87;5.43;;;;;;;-145.18;100.00;60484.78;4977620;28;20319;-69